createdAt,value
2022-09-10T00:00:29.665Z,97251.66
2022-09-10T00:02:55.687Z,97253.88
2022-09-10T00:05:21.659Z,97256.63
2022-09-10T00:07:48.555Z,97256.78
2022-09-10T00:10:14.511Z,97253.34
2022-09-10T00:12:40.434Z,97256.13
2022-09-10T00:15:06.445Z,97249.84
2022-09-10T00:17:32.383Z,97250.38
2022-09-10T00:19:58.349Z,97253.38
2022-09-10T00:22:25.074Z,97251.53
2022-09-10T00:24:51.084Z,97249.16
2022-09-10T00:27:17.020Z,97248.25
2022-09-10T00:29:42.979Z,97249.22
2022-09-10T00:32:09.873Z,97233.47
2022-09-10T00:34:35.871Z,97224.84
2022-09-10T00:37:01.837Z,97218.69
2022-09-10T00:39:28.510Z,97217.69
2022-09-10T00:41:54.489Z,97227.34
2022-09-10T00:44:21.327Z,97225.25
2022-09-10T00:46:47.935Z,97231.59
2022-09-10T00:49:14.500Z,97238.88
2022-09-10T00:51:40.498Z,97234.78
2022-09-10T00:54:06.748Z,97237.38
2022-09-10T00:56:32.728Z,97237.78
2022-09-10T00:58:58.660Z,97247.16
2022-09-10T01:01:24.612Z,97243.44
2022-09-10T01:03:50.905Z,97240.06
2022-09-10T01:06:17.546Z,97243.22
2022-09-10T01:08:43.471Z,97235.94
2022-09-10T01:11:09.416Z,97237.28
2022-09-10T01:13:35.372Z,97229.69
2022-09-10T01:16:02.117Z,97224.41
2022-09-10T01:18:28.107Z,97211.66
2022-09-10T01:20:54.048Z,97218.09
2022-09-10T01:23:20.063Z,97223.28
2022-09-10T01:25:46.240Z,97234.00
2022-09-10T01:28:12.663Z,97234.97
2022-09-10T01:30:38.699Z,97239.50
2022-09-10T01:33:05.350Z,97239.50
2022-09-10T01:35:32.236Z,97242.97
2022-09-10T01:37:58.168Z,97235.38
2022-09-10T01:40:24.616Z,97243.19
2022-09-10T01:42:50.577Z,97243.00
2022-09-10T01:45:17.195Z,97239.13
2022-09-10T01:47:43.157Z,97250.88
2022-09-10T01:50:09.093Z,97246.13
2022-09-10T01:52:35.121Z,97250.16
2022-09-10T01:55:01.692Z,97250.78
2022-09-10T01:57:27.647Z,97254.97
2022-09-10T01:59:53.933Z,97251.38
2022-09-10T02:02:21.457Z,97260.94
2022-09-10T02:10:08.578Z,97247.16
2022-09-10T02:12:34.735Z,97249.16
2022-09-10T04:10:10.739Z,97228.03
2022-09-10T04:12:37.426Z,97224.63
2022-09-10T04:15:03.368Z,97233.88
2022-09-10T04:17:29.971Z,97224.00
2022-09-10T04:19:55.923Z,97228.22
2022-09-10T04:22:21.884Z,97237.31
2022-09-10T04:24:47.818Z,97241.78
2022-09-10T04:27:13.789Z,97244.38
2022-09-10T04:29:39.755Z,97238.97
2022-09-10T04:32:05.807Z,97237.09
2022-09-10T04:34:31.764Z,97236.22
2022-09-10T04:36:58.130Z,97244.38
2022-09-10T04:39:24.107Z,97247.59
2022-09-10T04:41:50.062Z,97242.34
2022-09-10T04:44:16.916Z,97253.97
2022-09-10T04:46:43.584Z,97253.75
2022-09-10T04:49:09.602Z,97254.16
2022-09-10T04:51:35.556Z,97255.66
2022-09-10T04:54:02.237Z,97265.13
2022-09-10T04:56:28.249Z,97265.34
2022-09-10T04:58:54.220Z,97261.97
2022-09-10T05:01:20.922Z,97259.16
2022-09-10T05:03:46.936Z,97262.28
2022-09-10T05:06:12.891Z,97267.06
2022-09-10T05:08:39.536Z,97267.00
2022-09-10T05:11:05.515Z,97269.25
2022-09-10T05:13:31.455Z,97274.09
2022-09-10T05:15:57.391Z,97280.84
2022-09-10T05:18:24.226Z,97274.50
2022-09-10T05:20:50.174Z,97266.81
2022-09-10T05:23:16.123Z,97267.94
2022-09-10T05:25:42.809Z,97277.38
2022-09-10T05:28:08.790Z,97289.03
2022-09-10T05:30:34.801Z,97283.53
2022-09-10T05:33:00.733Z,97286.53
2022-09-10T05:35:27.557Z,97286.66
2022-09-10T05:37:53.822Z,97293.22
2022-09-10T05:40:19.789Z,97285.09
2022-09-10T05:42:45.770Z,97292.72
2022-09-10T05:45:11.732Z,97291.34
2022-09-10T05:47:37.678Z,97297.63
2022-09-10T05:50:03.610Z,97300.41
2022-09-10T05:52:29.584Z,97297.75
2022-09-10T05:54:55.511Z,97297.25
2022-09-10T05:57:21.486Z,97297.97
2022-09-10T05:59:48.114Z,97299.16
2022-09-10T06:02:14.088Z,97302.75
2022-09-10T06:04:40.112Z,97297.13
2022-09-10T06:07:06.044Z,97298.19
2022-09-10T06:09:32.028Z,97284.94
2022-09-10T06:11:58.004Z,97297.22
2022-09-10T06:14:24.661Z,97290.56
2022-09-10T06:16:50.641Z,97289.06
2022-09-10T06:19:16.628Z,97298.06
2022-09-10T06:21:43.296Z,97307.72
2022-09-10T06:24:09.257Z,97305.16
2022-09-10T06:26:35.238Z,97303.75
2022-09-10T06:29:01.235Z,97304.81
2022-09-10T06:31:27.173Z,97300.63
2022-09-10T06:33:53.143Z,97294.63
2022-09-10T06:36:19.096Z,97296.09
2022-09-10T06:38:45.093Z,97297.00
2022-09-10T06:41:11.055Z,97294.84
2022-09-10T06:43:37.701Z,97301.56
2022-09-10T06:46:03.749Z,97303.84
2022-09-10T06:48:38.561Z,97311.06
2022-09-10T06:51:06.226Z,97301.88
2022-09-10T06:53:32.503Z,97298.84
2022-09-10T06:55:59.854Z,97293.66
2022-09-10T06:58:26.216Z,97296.44
2022-09-10T07:00:52.363Z,97299.38
2022-09-10T07:11:20.472Z,97289.66
2022-09-10T09:08:09.417Z,97271.47
2022-09-10T09:10:35.375Z,97269.53
2022-09-10T09:13:02.089Z,97279.84
2022-09-10T09:15:28.153Z,97276.94
2022-09-10T09:17:54.141Z,97279.56
2022-09-10T09:20:20.136Z,97279.56
2022-09-10T09:22:46.992Z,97285.09
2022-09-10T09:25:12.988Z,97283.56
2022-09-10T09:27:38.931Z,97275.22
2022-09-10T09:30:05.613Z,97277.44
2022-09-10T09:32:31.593Z,97279.81
2022-09-10T09:34:57.546Z,97273.50
2022-09-10T09:37:23.517Z,97272.81
2022-09-10T09:39:49.502Z,97261.41
2022-09-10T09:42:15.476Z,97266.78
2022-09-10T09:44:41.456Z,97271.13
2022-09-10T09:47:07.381Z,97264.44
2022-09-10T09:49:33.351Z,97262.00
2022-09-10T09:51:59.283Z,97259.06
2022-09-10T09:57:11.187Z,97261.28
2022-09-10T09:59:37.133Z,97253.28
2022-09-10T10:02:04.032Z,97253.31
2022-09-10T10:04:30.835Z,97250.56
2022-09-10T10:06:56.901Z,97249.03
2022-09-10T10:09:22.857Z,97240.72
2022-09-10T10:11:49.505Z,97244.91
2022-09-10T10:14:15.477Z,97246.69
2022-09-10T10:16:42.173Z,97244.31
2022-09-10T10:19:08.143Z,97248.31
2022-09-10T10:21:34.133Z,97242.28
2022-09-10T10:24:00.108Z,97241.09
2022-09-10T10:29:10.374Z,97233.69
2022-09-10T10:31:36.382Z,97235.78
2022-09-10T10:34:02.332Z,97227.09
2022-09-10T10:36:28.513Z,97220.47
2022-09-10T10:38:54.445Z,97216.41
2022-09-10T10:41:20.407Z,97207.31
2022-09-10T10:43:46.375Z,97214.88
2022-09-10T10:46:12.358Z,97214.06
2022-09-10T10:48:38.445Z,97203.41
2022-09-10T10:51:04.414Z,97208.97
2022-09-10T10:53:31.150Z,97210.75
2022-09-10T10:55:57.220Z,97206.34
2022-09-10T10:58:23.150Z,97199.94
2022-09-10T11:00:50.053Z,97200.97
2022-09-10T11:03:15.999Z,97199.72
2022-09-10T11:05:41.970Z,97199.16
2022-09-10T11:08:07.901Z,97198.03
2022-09-10T11:10:33.866Z,97186.81
2022-09-10T11:12:59.795Z,97189.41
2022-09-10T11:15:25.776Z,97196.91
2022-09-10T11:17:51.750Z,97182.38
2022-09-10T11:20:28.490Z,97178.88
2022-09-10T11:22:55.219Z,97197.72
2022-09-10T11:25:21.926Z,97194.13
2022-09-10T11:27:47.949Z,97191.59
2022-09-10T11:30:13.892Z,97197.63
2022-09-10T11:32:39.835Z,97187.53
2022-09-10T11:35:05.803Z,97191.41
2022-09-10T11:37:32.720Z,97187.47
2022-09-10T11:39:58.758Z,97180.53
2022-09-10T11:42:24.766Z,97175.47
2022-09-10T11:44:50.722Z,97177.75
2022-09-10T11:47:18.050Z,97153.66
2022-09-10T11:49:44.484Z,97152.06
2022-09-10T11:52:10.708Z,97153.34
2022-09-10T11:54:37.935Z,97152.41
2022-09-10T11:57:04.179Z,97164.13
2022-09-10T12:02:11.045Z,97155.34
2022-09-10T14:02:23.497Z,97153.03
2022-09-10T14:04:50.204Z,97151.66
2022-09-10T14:07:16.193Z,97151.50
2022-09-10T14:09:42.133Z,97146.28
2022-09-10T14:12:08.844Z,97150.66
2022-09-10T14:14:34.839Z,97147.59
2022-09-10T14:17:00.773Z,97154.75
2022-09-10T14:19:27.563Z,97152.34
2022-09-10T14:21:53.513Z,97164.97
2022-09-10T14:24:19.445Z,97158.34
2022-09-10T14:26:45.566Z,97160.63
2022-09-10T14:29:11.632Z,97157.31
2022-09-10T14:31:37.608Z,97159.13
2022-09-10T14:34:03.545Z,97165.38
2022-09-10T14:36:29.506Z,97166.41
2022-09-10T14:38:56.195Z,97171.97
2022-09-10T14:41:22.160Z,97168.13
2022-09-10T14:43:48.122Z,97177.22
2022-09-10T14:46:14.103Z,97177.09
2022-09-10T14:48:40.151Z,97184.38
2022-09-10T14:51:06.485Z,97187.16
2022-09-10T14:53:33.317Z,97187.72
2022-09-10T14:55:59.326Z,97189.97
2022-09-10T14:58:25.457Z,97184.13
2022-09-10T15:00:52.174Z,97192.13
2022-09-10T15:03:18.161Z,97195.81
2022-09-10T15:05:44.130Z,97196.50
2022-09-10T15:08:10.792Z,97197.75
2022-09-10T15:10:36.750Z,97194.97
2022-09-10T15:13:02.714Z,97187.50
2022-09-10T15:15:29.356Z,97189.06
2022-09-10T15:17:56.214Z,97178.03
2022-09-10T15:20:27.173Z,97172.81
2022-09-10T15:22:53.874Z,97171.84
2022-09-10T15:25:20.589Z,97171.28
2022-09-10T15:27:46.519Z,97176.41
2022-09-10T15:30:12.477Z,97178.88
2022-09-10T15:32:39.046Z,97187.56
2022-09-10T15:35:05.006Z,97185.34
2022-09-10T15:37:30.994Z,97192.63
2022-09-10T15:39:57.046Z,97185.00
2022-09-10T15:42:23.070Z,97187.22
2022-09-10T15:44:49.022Z,97188.81
2022-09-10T15:47:14.975Z,97192.97
2022-09-10T15:49:41.653Z,97195.53
2022-09-10T15:52:07.607Z,97195.22
2022-09-10T15:54:33.580Z,97192.03
2022-09-10T15:56:59.530Z,97199.38
2022-09-10T15:59:26.562Z,97195.31
2022-09-10T16:01:52.572Z,97206.59
2022-09-10T16:04:18.538Z,97205.38
2022-09-10T16:06:45.447Z,97216.34
2022-09-10T16:09:11.454Z,97220.88
2022-09-10T16:11:38.073Z,97213.56
2022-09-10T16:14:04.820Z,97227.53
2022-09-10T16:16:30.887Z,97229.09
2022-09-10T16:18:57.511Z,97223.94
2022-09-10T16:21:23.441Z,97225.78
2022-09-10T16:23:49.397Z,97221.50
2022-09-10T16:26:15.323Z,97223.19
2022-09-10T16:28:41.406Z,97232.19
2022-09-10T16:31:08.236Z,97230.59
2022-09-10T16:33:34.230Z,97233.03
2022-09-10T16:36:00.227Z,97241.66
2022-09-10T16:38:26.806Z,97235.50
2022-09-10T16:40:52.808Z,97231.72
2022-09-10T16:43:19.075Z,97230.34
2022-09-10T16:45:46.653Z,97231.94
2022-09-10T16:48:12.874Z,97231.72
2022-09-10T16:50:40.267Z,97235.50
2022-09-10T16:53:11.419Z,97232.53
2022-09-10T16:55:38.053Z,97233.63
2022-09-10T18:55:21.107Z,97340.22
2022-09-10T18:57:47.071Z,97350.81
2022-09-10T19:00:13.197Z,97350.69
2022-09-10T19:02:39.285Z,97348.84
2022-09-10T19:05:11.573Z,97341.28
2022-09-10T19:07:37.909Z,97335.94
2022-09-10T19:10:04.437Z,97341.00
2022-09-10T19:12:31.481Z,97345.19
2022-09-10T19:14:57.432Z,97333.47
2022-09-10T19:17:23.372Z,97336.41
2022-09-10T19:19:50.296Z,97342.41
2022-09-10T19:22:16.288Z,97339.97
2022-09-10T19:24:58.703Z,97334.59
2022-09-10T19:27:24.655Z,97345.81
2022-09-10T19:29:51.482Z,97346.63
2022-09-10T19:32:17.473Z,97341.06
2022-09-10T19:34:43.450Z,97350.16
2022-09-10T19:37:09.403Z,97360.56
2022-09-10T19:39:36.023Z,97350.41
2022-09-10T19:42:02.005Z,97355.31
2022-09-10T19:44:28.010Z,97370.53
2022-09-10T19:46:54.800Z,97365.91
2022-09-10T19:49:20.757Z,97366.97
2022-09-10T19:51:46.752Z,97363.09
2022-09-10T19:54:13.364Z,97363.59
2022-09-10T19:56:39.353Z,97364.03
2022-09-10T19:59:05.318Z,97361.94
2022-09-10T20:01:31.416Z,97360.94
2022-09-10T20:03:57.410Z,97366.66
2022-09-10T20:06:24.209Z,97369.00
2022-09-10T20:08:50.163Z,97367.22
2022-09-10T20:11:16.152Z,97363.59
2022-09-10T20:13:42.846Z,97362.06
2022-09-10T20:16:08.820Z,97363.28
2022-09-10T20:18:35.675Z,97366.38
2022-09-10T20:21:01.627Z,97368.66
2022-09-10T20:23:27.595Z,97361.94
2022-09-10T20:25:53.532Z,97367.19
2022-09-10T20:28:19.481Z,97361.94
2022-09-10T20:30:46.376Z,97366.16
2022-09-10T20:33:12.357Z,97368.88
2022-09-10T20:35:38.326Z,97366.28
2022-09-10T20:38:05.018Z,97369.22
2022-09-10T20:40:31.008Z,97357.81
2022-09-10T20:42:56.945Z,97354.84
2022-09-10T20:45:22.963Z,97365.50
2022-09-10T20:47:48.947Z,97351.84
2022-09-10T20:50:14.885Z,97348.81
2022-09-10T20:52:40.849Z,97350.31
2022-09-10T20:55:06.804Z,97346.78
2022-09-10T20:57:33.557Z,97345.97
2022-09-10T21:00:02.232Z,97346.84
2022-09-10T21:02:29.131Z,97339.03
2022-09-10T21:04:55.110Z,97334.19
2022-09-10T21:07:21.433Z,97339.00
2022-09-10T21:09:48.040Z,97331.75
2022-09-10T21:12:13.998Z,97330.28
2022-09-10T21:14:40.584Z,97328.19
2022-09-10T21:17:06.551Z,97326.56
2022-09-10T21:19:32.508Z,97326.91
2022-09-10T21:21:58.452Z,97336.19
2022-09-10T21:24:24.418Z,97329.66
2022-09-10T21:26:50.346Z,97336.72
2022-09-10T21:29:16.335Z,97338.75
2022-09-10T21:31:42.310Z,97341.38
2022-09-10T21:34:09.197Z,97348.28
2022-09-10T21:36:35.492Z,97341.13
2022-09-10T21:39:01.788Z,97348.63
2022-09-10T21:41:28.513Z,97347.38
2022-09-10T21:43:54.780Z,97355.63
2022-09-10T21:49:01.319Z,97352.81
